createdAt,value
2023-04-21T00:02:21.720Z,99671.63
2023-04-21T00:04:49.681Z,99677.59
2023-04-21T00:07:17.253Z,99673.44
2023-04-21T00:09:44.698Z,99668.47
2023-04-21T00:12:12.155Z,99669.59
2023-04-21T00:14:40.134Z,99672.78
2023-04-21T00:17:08.889Z,99680.59
2023-04-21T00:19:36.381Z,99670.41
2023-04-21T00:22:04.524Z,99667.31
2023-04-21T00:24:31.999Z,99667.03
2023-04-21T00:26:59.445Z,99666.53
2023-04-21T00:29:26.837Z,99661.44
2023-04-21T00:31:54.346Z,99655.94
2023-04-21T00:34:23.126Z,99653.84
2023-04-21T00:36:50.570Z,99647.13
2023-04-21T00:39:18.362Z,99647.19
2023-04-21T00:41:46.224Z,99644.59
2023-04-21T00:44:13.740Z,99643.88
2023-04-21T00:46:43.186Z,99646.34
2023-04-21T00:49:10.937Z,99652.38
2023-04-21T00:51:40.563Z,99644.38
2023-04-21T00:54:10.156Z,99649.91
2023-04-21T00:56:37.940Z,99639.28
2023-04-21T00:59:05.609Z,99645.38
2023-04-21T01:01:34.098Z,99642.22
2023-04-21T01:04:02.350Z,99641.72
2023-04-21T01:06:32.087Z,99641.88
2023-04-21T01:09:01.042Z,99645.75
2023-04-21T01:11:28.556Z,99635.47
2023-04-21T01:13:56.348Z,99646.47
2023-04-21T01:16:24.317Z,99646.88
2023-04-21T01:18:52.017Z,99636.28
2023-04-21T01:21:19.996Z,99632.25
2023-04-21T01:23:48.876Z,99623.09
2023-04-21T01:26:18.721Z,99616.91
2023-04-21T01:28:47.570Z,99618.97
2023-04-21T01:31:15.414Z,99615.28
2023-04-21T01:33:43.221Z,99603.88
2023-04-21T01:36:11.095Z,99622.88
2023-04-21T01:38:39.997Z,99627.00
2023-04-21T01:41:10.660Z,99619.72
2023-04-21T01:43:39.077Z,99609.22
2023-04-21T01:46:07.301Z,99626.53
2023-04-21T01:48:34.995Z,99634.19
2023-04-21T01:51:02.648Z,99632.66
2023-04-21T01:53:30.127Z,99632.25
2023-04-21T01:55:57.649Z,99615.19
2023-04-21T01:58:26.459Z,99625.19
2023-04-21T02:00:53.938Z,99616.88
2023-04-21T02:03:21.740Z,99617.22
2023-04-21T02:05:51.483Z,99612.91
2023-04-21T02:08:19.008Z,99614.28
2023-04-21T02:10:46.545Z,99619.25
2023-04-21T02:13:14.039Z,99616.13
2023-04-21T02:15:42.875Z,99613.75
2023-04-21T02:18:10.581Z,99608.50
2023-04-21T02:20:38.575Z,99609.88
2023-04-21T02:23:06.091Z,99613.88
2023-04-21T02:25:33.609Z,99595.84
2023-04-21T02:28:01.077Z,99594.28
2023-04-21T02:30:28.822Z,99602.47
2023-04-21T02:32:57.694Z,99600.72
2023-04-21T02:35:25.520Z,99603.78
2023-04-21T02:37:53.032Z,99609.81
2023-04-21T02:40:21.128Z,99608.84
2023-04-21T02:42:48.546Z,99607.06
2023-04-21T02:45:16.131Z,99613.09
2023-04-21T02:47:43.586Z,99603.81
2023-04-21T02:50:14.288Z,99601.28
2023-04-21T02:52:41.729Z,99601.69
2023-04-21T02:55:09.786Z,99595.94
2023-04-21T02:57:37.211Z,99601.22
2023-04-21T03:00:07.307Z,99601.34
2023-04-21T03:02:35.053Z,99606.81
2023-04-21T03:05:02.610Z,99614.78
2023-04-21T03:07:31.379Z,99618.56
2023-04-21T03:09:58.910Z,99619.66
2023-04-21T03:12:26.324Z,99622.97
2023-04-21T03:14:53.782Z,99618.56
2023-04-21T03:17:21.221Z,99617.16
2023-04-21T03:19:48.685Z,99622.41
2023-04-21T03:22:16.123Z,99618.97
2023-04-21T03:24:44.898Z,99623.47
2023-04-21T03:27:12.346Z,99611.09
2023-04-21T03:29:39.774Z,99613.47
2023-04-21T03:32:07.249Z,99612.53
2023-04-21T03:34:34.711Z,99611.69
2023-04-21T03:37:02.148Z,99607.28
2023-04-21T03:39:29.605Z,99608.50
2023-04-21T03:41:58.413Z,99604.22
2023-04-21T03:44:26.990Z,99609.81
2023-04-21T03:46:54.821Z,99613.41
2023-04-21T03:49:22.714Z,99611.84
2023-04-21T03:51:50.514Z,99611.16
2023-04-21T03:54:17.967Z,99615.72
2023-04-21T03:56:45.551Z,99613.19
2023-04-21T03:59:14.371Z,99610.34
2023-04-21T04:01:42.307Z,99614.81
2023-04-21T04:04:10.126Z,99614.91
2023-04-21T04:06:37.822Z,99602.97
2023-04-21T04:09:05.388Z,99611.34
2023-04-21T04:11:33.235Z,99607.94
2023-04-21T04:14:00.859Z,99615.75
2023-04-21T04:16:30.019Z,99601.50
2023-04-21T04:18:57.649Z,99593.22
2023-04-21T04:21:25.165Z,99595.66
2023-04-21T04:23:53.186Z,99592.72
2023-04-21T04:26:22.245Z,99594.00
2023-04-21T04:28:49.971Z,99597.25
2023-04-21T04:31:18.178Z,99591.63
2023-04-21T04:33:46.988Z,99600.16
2023-04-21T04:36:14.768Z,99609.88
2023-04-21T04:38:42.183Z,99595.44
2023-04-21T04:41:09.790Z,99595.00
2023-04-21T04:43:38.940Z,99604.28
2023-04-21T04:46:08.918Z,99604.44
2023-04-21T04:48:36.441Z,99600.53
2023-04-21T04:51:05.671Z,99601.47
2023-04-21T04:53:33.299Z,99610.50
2023-04-21T04:56:00.915Z,99606.03
2023-04-21T04:58:28.376Z,99600.16
2023-04-21T05:00:55.847Z,99600.88
2023-04-21T05:03:23.449Z,99606.31
2023-04-21T05:05:51.077Z,99599.84
2023-04-21T05:08:19.878Z,99597.97
2023-04-21T05:10:47.346Z,99602.50
2023-04-21T05:13:18.004Z,99604.13
2023-04-21T05:15:45.477Z,99599.06
2023-04-21T05:18:12.937Z,99607.31
2023-04-21T05:20:42.094Z,99603.00
2023-04-21T05:23:09.600Z,99598.78
2023-04-21T05:25:38.834Z,99600.91
2023-04-21T05:28:06.275Z,99599.09
2023-04-21T05:30:33.785Z,99596.69
2023-04-21T05:33:01.296Z,99602.63
2023-04-21T05:35:31.433Z,99593.00
2023-04-21T05:37:58.941Z,99608.94
2023-04-21T05:40:26.436Z,99613.84
2023-04-21T05:42:55.293Z,99615.66
2023-04-21T05:45:22.793Z,99620.78
2023-04-21T05:47:50.311Z,99622.53
2023-04-21T05:50:17.886Z,99623.50
2023-04-21T05:52:45.405Z,99614.72
2023-04-21T05:55:12.905Z,99618.78
2023-04-21T05:57:40.390Z,99623.69
2023-04-21T06:00:11.648Z,99629.50
2023-04-21T06:02:39.333Z,99630.75
2023-04-21T06:05:07.276Z,99626.06
2023-04-21T06:07:37.123Z,99626.78
2023-04-21T06:10:04.923Z,99614.13
2023-04-21T06:12:32.375Z,99610.97
2023-04-21T06:14:59.894Z,99612.25
2023-04-21T06:17:28.775Z,99606.94
2023-04-21T06:19:56.555Z,99600.84
2023-04-21T06:22:24.100Z,99610.44
2023-04-21T06:24:51.911Z,99598.38
2023-04-21T06:27:19.359Z,99594.22
2023-04-21T06:29:46.814Z,99604.22
2023-04-21T06:32:14.555Z,99600.47
2023-04-21T06:34:43.374Z,99591.19
2023-04-21T06:37:10.930Z,99605.66
2023-04-21T06:39:38.401Z,99604.94
2023-04-21T06:42:05.892Z,99613.28
2023-04-21T06:44:34.386Z,99605.28
2023-04-21T06:47:01.874Z,99610.59
2023-04-21T06:49:29.418Z,99612.44
2023-04-21T06:51:58.162Z,99609.66
2023-04-21T06:54:25.592Z,99611.72
2023-04-21T06:56:53.038Z,99609.56
2023-04-21T06:59:20.841Z,99616.88
2023-04-21T07:01:48.962Z,99615.63
2023-04-21T07:04:16.422Z,99616.44
2023-04-21T07:06:44.407Z,99609.94
2023-04-21T07:09:13.224Z,99607.75
2023-04-21T07:11:41.424Z,99604.50
2023-04-21T07:14:08.891Z,99598.38
2023-04-21T07:16:36.382Z,99592.34
2023-04-21T07:19:03.901Z,99593.16
2023-04-21T07:21:32.013Z,99593.25
2023-04-21T07:23:59.509Z,99592.72
2023-04-21T07:26:28.858Z,99591.81
2023-04-21T07:28:58.310Z,99588.91
2023-04-21T07:31:25.912Z,99586.59
2023-04-21T07:33:53.465Z,99597.09
2023-04-21T07:36:21.043Z,99587.94
2023-04-21T07:38:48.527Z,99590.81
2023-04-21T07:41:16.000Z,99600.78
2023-04-21T07:43:44.802Z,99589.78
2023-04-21T07:46:13.182Z,99581.50
2023-04-21T07:48:41.217Z,99573.97
2023-04-21T07:51:08.695Z,99586.53
2023-04-21T07:53:36.213Z,99577.72
2023-04-21T07:56:04.165Z,99584.63
2023-04-21T07:58:31.652Z,99582.69
2023-04-21T08:01:00.503Z,99587.09
2023-04-21T08:03:28.108Z,99586.03
2023-04-21T08:05:55.988Z,99584.81
2023-04-21T08:08:23.769Z,99583.94
2023-04-21T08:10:51.398Z,99579.00
2023-04-21T08:13:20.885Z,99588.72
2023-04-21T08:15:48.458Z,99587.78
2023-04-21T08:18:21.280Z,99588.63
2023-04-21T08:20:50.115Z,99587.47
2023-04-21T08:23:17.749Z,99590.84
2023-04-21T08:25:45.425Z,99589.31
2023-04-21T08:28:14.107Z,99598.97
2023-04-21T08:30:41.531Z,99595.06
2023-04-21T08:33:13.439Z,99585.19
2023-04-21T08:35:55.062Z,99590.25
2023-04-21T08:38:29.001Z,99604.34
2023-04-21T08:40:57.130Z,99593.34
2023-04-21T08:43:24.617Z,99604.50
2023-04-21T08:45:54.124Z,99604.91
2023-04-21T08:48:23.608Z,99600.88
2023-04-21T08:50:53.645Z,99593.25
2023-04-21T08:53:21.677Z,99602.66
2023-04-21T08:56:07.529Z,99605.22
2023-04-21T08:58:38.030Z,99604.72
2023-04-21T09:01:05.643Z,99600.97
2023-04-21T09:03:33.425Z,99602.31
2023-04-21T09:06:05.502Z,99604.34
2023-04-21T09:08:35.325Z,99609.09
2023-04-21T09:11:05.937Z,99609.41
2023-04-21T09:13:34.863Z,99596.84
2023-04-21T09:16:04.643Z,99600.50
2023-04-21T09:18:36.116Z,99589.88
2023-04-21T09:21:09.165Z,99591.53
2023-04-21T09:23:44.138Z,99589.56
2023-04-21T09:26:12.070Z,99593.56
2023-04-21T09:28:42.539Z,99597.94
2023-04-21T09:31:18.001Z,99598.97
2023-04-21T09:33:57.705Z,99602.59
2023-04-21T09:36:29.919Z,99602.38
2023-04-21T09:39:25.216Z,99597.81
2023-04-21T09:41:46.795Z,99597.31
2023-04-21T09:44:14.243Z,99606.56
2023-04-21T09:46:44.654Z,99601.47
2023-04-21T09:49:14.762Z,99599.84
2023-04-21T09:52:14.299Z,99600.72
2023-04-21T09:54:33.779Z,99597.72
2023-04-21T09:57:03.582Z,99588.56
2023-04-21T09:59:33.631Z,99582.03
2023-04-21T10:02:02.245Z,99585.00
2023-04-21T10:04:32.533Z,99583.81
2023-04-21T10:07:02.684Z,99570.44
2023-04-21T10:09:36.360Z,99571.69
2023-04-21T10:12:06.941Z,99563.94
2023-04-21T10:14:36.162Z,99557.78
2023-04-21T10:17:05.855Z,99561.19
2023-04-21T10:19:36.663Z,99574.91
2023-04-21T10:22:07.369Z,99576.88
2023-04-21T10:24:39.571Z,99579.75
2023-04-21T10:27:07.049Z,99583.50
2023-04-21T10:32:07.655Z,99579.75
2023-04-21T10:34:38.465Z,99582.66
2023-04-21T10:37:25.200Z,99576.63
2023-04-21T10:39:55.701Z,99580.00
2023-04-21T10:42:34.452Z,99579.25
2023-04-21T10:45:08.620Z,99565.59
2023-04-21T10:47:48.910Z,99570.00
2023-04-21T10:50:20.158Z,99569.97
2023-04-21T10:52:55.534Z,99562.72
2023-04-21T10:55:23.364Z,99561.88
2023-04-21T10:57:50.892Z,99552.34
2023-04-21T11:00:21.617Z,99548.91
2023-04-21T11:02:57.003Z,99552.63
2023-04-21T11:05:34.523Z,99556.84
2023-04-21T11:08:14.283Z,99552.50
2023-04-21T11:10:51.827Z,99548.78
2023-04-21T11:13:22.901Z,99558.50
2023-04-21T11:16:01.934Z,99536.91
2023-04-21T11:18:41.116Z,99536.41
2023-04-21T11:21:10.368Z,99532.88
2023-04-21T11:23:42.369Z,99529.78
2023-04-21T11:26:09.936Z,99523.63
2023-04-21T11:28:37.979Z,99501.41
2023-04-21T11:31:05.991Z,99500.03
2023-04-21T11:33:37.040Z,99499.91
2023-04-21T11:36:05.742Z,99493.41
2023-04-21T11:38:38.558Z,99491.47
2023-04-21T11:41:09.333Z,99495.59
2023-04-21T11:43:37.334Z,99487.28
2023-04-21T11:46:29.435Z,99493.59
2023-04-21T11:49:01.069Z,99487.69
2023-04-21T11:51:34.217Z,99490.19
2023-04-21T11:54:01.907Z,99496.28
2023-04-21T11:56:30.884Z,99491.53
2023-04-21T11:58:58.479Z,99496.69
2023-04-21T12:01:27.812Z,99496.03
2023-04-21T12:03:56.967Z,99491.88
2023-04-21T12:06:25.981Z,99478.03
2023-04-21T12:08:58.418Z,99479.25
2023-04-21T12:11:26.137Z,99485.25
2023-04-21T12:13:57.360Z,99484.22
2023-04-21T12:16:27.064Z,99476.22
2023-04-21T12:18:54.924Z,99475.06
2023-04-21T12:21:22.448Z,99468.94
2023-04-21T12:23:50.376Z,99463.06
2023-04-21T12:26:17.805Z,99463.97
2023-04-21T12:28:45.457Z,99456.50
2023-04-21T12:31:14.347Z,99444.63
2023-04-21T12:33:41.978Z,99439.53
2023-04-21T12:36:09.639Z,99425.41
2023-04-21T12:38:37.399Z,99430.16
2023-04-21T12:41:04.920Z,99429.69
2023-04-21T12:43:32.336Z,99428.00
2023-04-21T12:46:00.710Z,99424.41
2023-04-21T12:48:29.940Z,99421.09
2023-04-21T12:50:57.342Z,99422.06
2023-04-21T12:53:24.775Z,99408.53
2023-04-21T12:56:03.511Z,99410.00
2023-04-21T12:58:31.882Z,99402.63
2023-04-21T13:00:59.374Z,99397.28
2023-04-21T13:03:26.936Z,99406.59
2023-04-21T13:05:55.770Z,99393.66
2023-04-21T13:08:23.208Z,99391.00
2023-04-21T13:10:50.641Z,99399.09
2023-04-21T13:13:18.078Z,99395.47
2023-04-21T13:15:45.648Z,99398.94
2023-04-21T13:18:13.113Z,99389.16
2023-04-21T13:20:40.593Z,99377.13
2023-04-21T13:23:11.282Z,99375.53
2023-04-21T13:25:39.057Z,99374.28
2023-04-21T13:28:07.551Z,99365.19
2023-04-21T13:30:36.148Z,99359.66
2023-04-21T13:33:03.923Z,99350.19
2023-04-21T13:35:31.438Z,99346.19
2023-04-21T13:37:58.926Z,99358.13
2023-04-21T13:40:35.181Z,99350.75
2023-04-21T13:43:09.436Z,99349.09
2023-04-21T13:45:37.040Z,99342.69
2023-04-21T13:48:05.012Z,99339.59
2023-04-21T13:50:33.099Z,99335.56
2023-04-21T13:53:00.608Z,99325.50
2023-04-21T13:55:28.125Z,99321.00
2023-04-21T13:57:56.977Z,99312.22
2023-04-21T14:00:24.947Z,99309.38
2023-04-21T14:02:52.883Z,99313.75
2023-04-21T14:05:20.830Z,99308.06
2023-04-21T14:07:48.550Z,99306.97
2023-04-21T14:10:16.347Z,99295.97
2023-04-21T14:12:44.912Z,99290.94
2023-04-21T14:15:13.999Z,99288.34
2023-04-21T14:17:41.915Z,99283.50
2023-04-21T14:20:10.245Z,99279.97
2023-04-21T14:22:37.783Z,99275.03
2023-04-21T14:25:05.842Z,99272.97
2023-04-21T14:27:33.860Z,99265.47
2023-04-21T14:30:01.600Z,99269.72
2023-04-21T14:32:30.632Z,99262.69
2023-04-21T14:34:59.257Z,99258.28
2023-04-21T14:37:27.974Z,99256.19
2023-04-21T14:39:55.442Z,99245.22
2023-04-21T14:42:22.926Z,99253.03
2023-04-21T14:44:50.409Z,99239.81
2023-04-21T14:47:18.125Z,99242.50
2023-04-21T14:49:47.242Z,99231.00
2023-04-21T14:52:14.827Z,99227.59
2023-04-21T14:54:42.324Z,99224.13
2023-04-21T14:57:19.035Z,99228.28
2023-04-21T14:59:48.198Z,99225.25
2023-04-21T15:02:16.385Z,99211.31
2023-04-21T15:04:44.318Z,99215.38
2023-04-21T15:07:13.549Z,99213.59
2023-04-21T15:09:42.971Z,99211.88
2023-04-21T15:12:12.564Z,99215.13
2023-04-21T15:14:40.257Z,99205.16
2023-04-21T15:17:07.978Z,99193.13
2023-04-21T15:19:36.416Z,99197.63
2023-04-21T15:22:04.725Z,99191.25
2023-04-21T15:24:33.560Z,99198.81
2023-04-21T15:27:01.244Z,99195.34
2023-04-21T15:29:29.035Z,99203.03
2023-04-21T15:31:56.617Z,99193.31
2023-04-21T15:34:24.090Z,99193.75
2023-04-21T15:36:51.597Z,99195.31
2023-04-21T15:39:19.084Z,99196.16
2023-04-21T15:41:48.130Z,99204.78
2023-04-21T15:44:15.756Z,99198.38
2023-04-21T15:46:43.261Z,99192.06
2023-04-21T15:49:10.842Z,99182.38
2023-04-21T15:51:38.659Z,99180.25
2023-04-21T15:54:06.497Z,99178.56
2023-04-21T15:56:34.115Z,99186.22
2023-04-21T15:59:03.687Z,99184.97
2023-04-21T16:01:31.268Z,99175.41
2023-04-21T16:03:59.743Z,99175.72
2023-04-21T16:06:30.574Z,99169.75
2023-04-21T16:08:58.268Z,99168.88
2023-04-21T16:11:26.181Z,99166.31
2023-04-21T16:13:53.684Z,99152.97
2023-04-21T16:16:22.718Z,99152.97
2023-04-21T16:18:50.231Z,99153.56
2023-04-21T16:21:17.836Z,99144.47
2023-04-21T16:23:45.440Z,99149.13
2023-04-21T16:26:12.951Z,99138.50
2023-04-21T16:28:40.430Z,99142.28
2023-04-21T16:31:08.014Z,99131.25
2023-04-21T16:33:37.012Z,99135.38
2023-04-21T16:36:04.927Z,99130.97
2023-04-21T16:38:32.411Z,99122.88
2023-04-21T16:41:00.052Z,99120.34
2023-04-21T16:43:27.584Z,99129.09
2023-04-21T16:45:55.101Z,99118.63
2023-04-21T16:48:22.774Z,99123.72
2023-04-21T16:50:53.684Z,99119.75
2023-04-21T16:53:22.809Z,99115.78
2023-04-21T16:55:50.257Z,99120.31
2023-04-21T16:58:17.732Z,99120.25
2023-04-21T17:00:45.370Z,99110.22
2023-04-21T17:03:12.994Z,99114.31
2023-04-21T17:05:41.034Z,99110.63
2023-04-21T17:08:10.295Z,99117.16
2023-04-21T17:10:37.748Z,99110.94
2023-04-21T17:13:07.279Z,99114.78
2023-04-21T17:15:34.957Z,99110.28
2023-04-21T17:18:02.765Z,99109.59
2023-04-21T17:20:30.636Z,99102.31
2023-04-21T17:22:58.138Z,99099.59
2023-04-21T17:25:27.020Z,99106.41
2023-04-21T17:27:54.490Z,99098.41
2023-04-21T17:30:23.248Z,99099.00
2023-04-21T17:33:00.537Z,99099.13
2023-04-21T17:35:36.291Z,99093.13
2023-04-21T17:38:03.842Z,99093.66
2023-04-21T17:40:32.642Z,99083.31
2023-04-21T17:43:00.163Z,99089.09
2023-04-21T17:45:27.685Z,99081.63
2023-04-21T17:47:55.199Z,99080.00
2023-04-21T17:50:27.113Z,99077.47
2023-04-21T17:52:54.574Z,99077.69
2023-04-21T17:55:22.024Z,99074.13
2023-04-21T17:57:50.875Z,99077.66
2023-04-21T18:00:19.012Z,99076.91
2023-04-21T18:02:46.529Z,99072.56
2023-04-21T18:05:14.218Z,99065.22
2023-04-21T18:07:42.425Z,99076.22
2023-04-21T18:10:10.312Z,99076.78
2023-04-21T18:12:38.033Z,99077.94
2023-04-21T18:15:08.322Z,99083.41
2023-04-21T18:17:36.952Z,99080.34
2023-04-21T18:20:05.466Z,99085.44
2023-04-21T18:22:33.061Z,99083.56
2023-04-21T18:25:00.600Z,99082.06
2023-04-21T18:27:28.086Z,99074.88
2023-04-21T18:29:55.569Z,99074.88
2023-04-21T18:32:24.451Z,99078.69
2023-04-21T18:34:51.971Z,99075.66
2023-04-21T18:37:19.468Z,99077.38
2023-04-21T18:39:46.916Z,99074.59
2023-04-21T18:42:14.437Z,99080.94
2023-04-21T18:44:41.970Z,99081.09
2023-04-21T18:47:09.490Z,99085.13
2023-04-21T18:49:38.991Z,99094.13
2023-04-21T18:52:06.434Z,99095.59
2023-04-21T18:54:33.946Z,99090.03
2023-04-21T18:57:02.206Z,99086.84
2023-04-21T18:59:29.666Z,99094.28
2023-04-21T19:01:57.689Z,99097.06
2023-04-21T19:04:25.252Z,99110.25
2023-04-21T19:06:54.182Z,99110.97
2023-04-21T19:09:22.632Z,99109.84
2023-04-21T19:11:50.255Z,99112.28
2023-04-21T19:14:17.710Z,99104.00
2023-04-21T19:16:45.192Z,99100.41
2023-04-21T19:19:12.668Z,99109.91
2023-04-21T19:21:40.124Z,99099.31
2023-04-21T19:24:08.935Z,99108.81
2023-04-21T19:26:36.508Z,99109.19
2023-04-21T19:29:04.769Z,99103.53
2023-04-21T19:31:32.255Z,99104.63
2023-04-21T19:33:59.723Z,99100.69
2023-04-21T19:36:27.372Z,99105.66
2023-04-21T19:38:54.833Z,99100.22
2023-04-21T19:41:24.353Z,99104.75
2023-04-21T19:43:51.832Z,99099.50
2023-04-21T19:46:19.381Z,99098.53
2023-04-21T19:48:46.870Z,99096.56
2023-04-21T19:51:14.431Z,99093.69
2023-04-21T19:53:41.911Z,99094.53
2023-04-21T19:56:09.477Z,99088.72
2023-04-21T19:58:40.361Z,99093.97
2023-04-21T20:01:08.817Z,99098.94
2023-04-21T20:03:36.644Z,99107.97
2023-04-21T20:06:05.230Z,99116.78
2023-04-21T20:08:32.836Z,99172.41
2023-04-21T20:11:00.800Z,99214.69
2023-04-21T20:13:28.328Z,99246.00
2023-04-21T20:15:57.214Z,99269.28
2023-04-21T20:18:24.752Z,99241.88
2023-04-21T20:20:52.379Z,99214.06
2023-04-21T20:23:20.385Z,99199.94
2023-04-21T20:25:47.895Z,99178.44
2023-04-21T20:28:16.260Z,99155.97
2023-04-21T20:30:43.844Z,99142.69
2023-04-21T20:33:12.734Z,99119.16
2023-04-21T20:35:43.897Z,99129.63
2023-04-21T20:38:11.558Z,99127.34
2023-04-21T20:40:39.229Z,99123.38
2023-04-21T20:43:07.560Z,99125.13
2023-04-21T20:45:35.126Z,99110.56
2023-04-21T20:48:02.593Z,99111.84
2023-04-21T20:50:31.463Z,99101.81
2023-04-21T20:52:59.387Z,99098.47
2023-04-21T20:55:26.924Z,99109.72
2023-04-21T20:57:54.408Z,99095.41
2023-04-21T21:00:21.989Z,99097.56
2023-04-21T21:02:49.536Z,99086.66
2023-04-21T21:05:17.256Z,99088.31
2023-04-21T21:07:46.085Z,99087.78
2023-04-21T21:10:14.536Z,99088.34
2023-04-21T21:12:43.696Z,99092.81
2023-04-21T21:15:12.312Z,99089.63
2023-04-21T21:17:39.781Z,99089.38
2023-04-21T21:20:08.702Z,99091.00
2023-04-21T21:22:36.263Z,99097.09
2023-04-21T21:25:05.811Z,99093.66
2023-04-21T21:27:33.323Z,99097.63
2023-04-21T21:30:00.839Z,99091.44
2023-04-21T21:32:28.361Z,99104.56
2023-04-21T21:34:55.920Z,99100.00
2023-04-21T21:37:24.353Z,99106.72
2023-04-21T21:39:52.523Z,99102.88
2023-04-21T21:42:21.311Z,99112.25
2023-04-21T21:44:48.759Z,99110.84
2023-04-21T21:47:17.418Z,99116.50
2023-04-21T21:49:44.946Z,99115.28
2023-04-21T21:52:14.780Z,99118.06
2023-04-21T21:54:42.176Z,99121.63
2023-04-21T21:57:09.617Z,99116.34
2023-04-21T21:59:38.705Z,99122.69
2023-04-21T22:02:06.452Z,99121.28
2023-04-21T22:04:34.061Z,99131.38
2023-04-21T22:07:01.623Z,99137.41
2023-04-21T22:09:29.086Z,99130.75
2023-04-21T22:11:56.684Z,99131.13
2023-04-21T22:14:24.353Z,99134.03
2023-04-21T22:16:53.845Z,99127.31
2023-04-21T22:19:21.580Z,99125.78
2023-04-21T22:21:49.247Z,99128.38
2023-04-21T22:24:16.778Z,99123.13
2023-04-21T22:26:44.873Z,99128.50
2023-04-21T22:29:12.330Z,99129.97
2023-04-21T22:31:39.898Z,99130.84
2023-04-21T22:34:08.908Z,99137.22
2023-04-21T22:36:36.376Z,99132.56
2023-04-21T22:39:04.562Z,99131.72
2023-04-21T22:41:32.633Z,99140.38
2023-04-21T22:44:00.148Z,99146.28
2023-04-21T22:46:31.864Z,99138.84
2023-04-21T22:48:59.915Z,99137.84
2023-04-21T22:51:29.656Z,99135.47
2023-04-21T22:53:57.278Z,99147.47
2023-04-21T22:56:24.947Z,99145.28
2023-04-21T22:58:52.597Z,99141.88
2023-04-21T23:01:20.172Z,99137.13
2023-04-21T23:03:47.998Z,99133.53
2023-04-21T23:06:15.615Z,99126.88
2023-04-21T23:08:44.447Z,99133.75
2023-04-21T23:11:11.924Z,99139.47
2023-04-21T23:13:39.781Z,99142.56
2023-04-21T23:16:07.577Z,99137.44
2023-04-21T23:18:35.754Z,99141.81
2023-04-21T23:21:03.313Z,99131.22
2023-04-21T23:23:30.787Z,99134.81
2023-04-21T23:25:59.544Z,99139.31
2023-04-21T23:28:27.418Z,99136.44
2023-04-21T23:30:55.009Z,99131.47
2023-04-21T23:33:22.530Z,99124.53
2023-04-21T23:35:50.028Z,99122.25
2023-04-21T23:38:17.471Z,99121.50
2023-04-21T23:40:44.888Z,99119.03
2023-04-21T23:43:13.804Z,99120.22
2023-04-21T23:45:41.547Z,99116.38
2023-04-21T23:48:09.100Z,99111.88
2023-04-21T23:50:36.689Z,99116.63
2023-04-21T23:53:04.201Z,99109.06
2023-04-21T23:55:31.690Z,99116.28
2023-04-21T23:57:59.118Z,99112.66
